createdAt,value
2023-04-06T00:00:11.934Z,100690.31
2023-04-06T00:05:13.639Z,100689.66
2023-04-06T00:10:17.012Z,100694.44
2023-04-06T00:15:18.742Z,100691.97
2023-04-06T00:20:20.499Z,100695.66
2023-04-06T00:25:22.242Z,100692.59
2023-04-06T00:30:23.987Z,100687.78
2023-04-06T00:35:25.714Z,100688.75
2023-04-06T00:40:29.454Z,100681.13
2023-04-06T00:45:31.287Z,100679.59
2023-04-06T00:50:33.091Z,100683.81
2023-04-06T00:55:36.974Z,100684.88
2023-04-06T01:00:39.340Z,100680.81
2023-04-06T01:05:43.571Z,100684.13
2023-04-06T01:10:53.577Z,100684.25
2023-04-06T01:16:01.567Z,100686.13
2023-04-06T01:21:17.396Z,100682.00
2023-04-06T01:26:46.630Z,100677.63
2023-04-06T01:31:48.663Z,100684.63
2023-04-06T01:36:51.306Z,100682.16
2023-04-06T01:42:02.820Z,100680.81
2023-04-06T01:47:06.604Z,100669.34
2023-04-06T01:52:08.734Z,100670.06
2023-04-06T01:57:13.949Z,100669.44
2023-04-06T02:02:26.697Z,100675.84
2023-04-06T02:07:35.362Z,100665.69
2023-04-06T02:12:37.261Z,100664.63
2023-04-06T02:17:42.177Z,100673.00
2023-04-06T02:22:45.532Z,100668.16
2023-04-06T02:27:47.202Z,100664.50
2023-04-06T02:32:49.039Z,100663.72
2023-04-06T02:37:51.389Z,100653.19
2023-04-06T02:42:53.098Z,100656.78
2023-04-06T02:48:02.919Z,100660.00
2023-04-06T02:53:07.357Z,100653.22
2023-04-06T02:58:10.869Z,100647.19
2023-04-06T03:03:23.162Z,100654.72
2023-04-06T03:08:25.751Z,100652.75
2023-04-06T03:13:27.512Z,100657.97
2023-04-06T03:18:33.068Z,100657.88
2023-04-06T03:23:34.857Z,100662.50
2023-04-06T03:28:37.796Z,100667.22
2023-04-06T03:33:41.828Z,100664.59
2023-04-06T03:38:48.166Z,100661.00
2023-04-06T03:43:50.916Z,100672.69
2023-04-06T03:48:53.258Z,100673.84
2023-04-06T03:53:57.127Z,100689.72
2023-04-06T03:58:58.925Z,100689.06
2023-04-06T04:04:01.220Z,100687.53
2023-04-06T04:09:03.493Z,100695.75
2023-04-06T04:14:05.282Z,100694.06
2023-04-06T04:19:07.393Z,100693.00
2023-04-06T04:24:09.228Z,100685.13
2023-04-06T04:29:12.292Z,100693.00
2023-04-06T04:34:15.983Z,100696.13
2023-04-06T04:39:17.760Z,100695.28
2023-04-06T04:44:24.885Z,100694.63
2023-04-06T04:49:27.518Z,100691.75
2023-04-06T04:54:30.714Z,100691.91
2023-04-06T04:59:35.739Z,100691.47
2023-04-06T05:04:46.457Z,100700.06
2023-04-06T05:09:54.409Z,100709.56
2023-04-06T05:15:00.469Z,100708.78
2023-04-06T05:20:03.183Z,100704.06
2023-04-06T05:25:09.999Z,100712.00
2023-04-06T05:30:13.359Z,100721.25
2023-04-06T05:35:19.480Z,100725.69
2023-04-06T05:40:26.186Z,100728.16
2023-04-06T05:45:28.515Z,100728.28
2023-04-06T05:50:32.032Z,100723.91
2023-04-06T05:55:34.316Z,100726.13
2023-04-06T06:00:50.634Z,100726.31
2023-04-06T06:06:00.805Z,100714.84
2023-04-06T06:11:07.610Z,100717.81
2023-04-06T06:16:09.626Z,100713.41
2023-04-06T06:21:18.159Z,100726.59
2023-04-06T06:26:20.637Z,100733.06
2023-04-06T06:31:23.634Z,100725.22
2023-04-06T06:36:26.696Z,100718.38
2023-04-06T06:41:28.486Z,100716.75
2023-04-06T06:46:30.611Z,100711.13
2023-04-06T06:51:32.407Z,100727.25
2023-04-06T06:56:34.176Z,100715.09
2023-04-06T07:01:37.605Z,100722.50
2023-04-06T07:06:39.765Z,100726.69
2023-04-06T07:11:42.425Z,100730.91
2023-04-06T07:16:46.177Z,100727.50
2023-04-06T07:21:50.127Z,100723.91
2023-04-06T07:26:51.854Z,100734.31
2023-04-06T07:31:54.092Z,100722.22
2023-04-06T07:36:57.653Z,100731.72
2023-04-06T07:41:59.718Z,100714.75
2023-04-06T07:47:02.033Z,100717.88
2023-04-06T07:52:04.192Z,100725.03
2023-04-06T07:57:07.497Z,100715.75
2023-04-06T08:02:09.241Z,100714.19
2023-04-06T08:07:10.946Z,100718.56
2023-04-06T08:12:12.688Z,100724.59
2023-04-06T08:17:14.416Z,100722.47
2023-04-06T08:22:16.126Z,100721.63
2023-04-06T08:27:18.218Z,100720.25
2023-04-06T08:32:20.007Z,100710.34
2023-04-06T08:37:22.331Z,100715.41
2023-04-06T08:42:27.209Z,100714.66
2023-04-06T08:47:29.149Z,100710.31
2023-04-06T08:52:32.873Z,100710.56
2023-04-06T08:57:36.677Z,100710.56
2023-04-06T09:02:43.863Z,100710.81
2023-04-06T09:07:46.273Z,100707.31
2023-04-06T09:12:47.971Z,100704.16
2023-04-06T09:17:49.864Z,100699.16
2023-04-06T09:22:51.680Z,100692.50
2023-04-06T09:28:01.416Z,100702.25
2023-04-06T09:33:03.428Z,100687.94
2023-04-06T09:38:11.987Z,100685.94
2023-04-06T09:43:13.803Z,100684.94
2023-04-06T09:48:16.202Z,100682.56
2023-04-06T09:53:21.432Z,100669.97
2023-04-06T09:58:27.240Z,100667.41
2023-04-06T10:04:06.959Z,100669.84
2023-04-06T10:09:09.527Z,100661.13
2023-04-06T10:14:12.811Z,100663.41
2023-04-06T10:19:21.932Z,100672.88
2023-04-06T10:24:23.677Z,100653.97
2023-04-06T10:29:25.425Z,100659.81
2023-04-06T10:34:36.260Z,100658.56
2023-04-06T10:39:47.135Z,100640.94
2023-04-06T10:44:50.981Z,100651.94
2023-04-06T10:49:52.761Z,100650.63
2023-04-06T10:54:55.781Z,100637.44
2023-04-06T10:59:57.467Z,100632.56
2023-04-06T11:04:59.908Z,100630.50
2023-04-06T11:10:15.066Z,100628.41
2023-04-06T11:15:19.566Z,100624.28
2023-04-06T11:20:21.413Z,100623.78
2023-04-06T11:25:23.089Z,100615.44
2023-04-06T11:30:24.873Z,100613.06
2023-04-06T11:35:26.617Z,100611.19
2023-04-06T11:40:30.416Z,100613.44
2023-04-06T11:45:44.130Z,100604.22
2023-04-06T11:50:48.545Z,100599.16
2023-04-06T11:55:50.411Z,100603.38
2023-04-06T12:00:52.156Z,100599.00
2023-04-06T12:05:53.849Z,100597.06
2023-04-06T12:10:55.545Z,100584.88
2023-04-06T12:15:57.276Z,100591.59
2023-04-06T12:20:58.977Z,100583.00
2023-04-06T12:26:00.764Z,100577.53
2023-04-06T12:31:02.593Z,100579.78
2023-04-06T12:36:04.387Z,100575.00
2023-04-06T12:41:06.116Z,100562.03
2023-04-06T12:46:07.850Z,100558.09
2023-04-06T12:51:09.572Z,100553.59
2023-04-06T12:56:16.697Z,100556.72
2023-04-06T13:01:18.764Z,100558.66
2023-04-06T13:06:20.722Z,100549.06
2023-04-06T13:11:26.905Z,100549.34
2023-04-06T13:16:28.976Z,100545.13
2023-04-06T13:21:31.532Z,100529.94
2023-04-06T13:26:33.247Z,100531.06
2023-04-06T13:31:34.938Z,100515.88
2023-04-06T13:36:36.709Z,100521.50
2023-04-06T13:41:38.476Z,100519.94
2023-04-06T13:46:40.800Z,100512.63
2023-04-06T13:51:43.118Z,100519.66
2023-04-06T13:56:44.832Z,100512.31
2023-04-06T14:01:46.685Z,100505.69
2023-04-06T14:06:48.457Z,100498.53
2023-04-06T14:11:51.051Z,100497.25
2023-04-06T14:16:53.218Z,100493.03
2023-04-06T14:21:55.529Z,100504.28
2023-04-06T14:26:57.854Z,100498.41
2023-04-06T14:32:01.159Z,100488.25
2023-04-06T14:37:02.884Z,100503.75
2023-04-06T14:42:04.669Z,100490.66
2023-04-06T14:47:06.667Z,100482.06
2023-04-06T14:52:08.484Z,100482.19
2023-04-06T14:57:10.717Z,100486.56
2023-04-06T15:02:12.402Z,100476.28
2023-04-06T15:07:14.291Z,100482.38
2023-04-06T15:12:15.905Z,100488.56
2023-04-06T15:17:17.718Z,100470.53
2023-04-06T15:22:19.312Z,100473.06
2023-04-06T15:27:21.834Z,100481.78
2023-04-06T15:32:23.917Z,100474.75
2023-04-06T15:37:25.707Z,100468.72
2023-04-06T15:42:27.422Z,100468.41
2023-04-06T15:47:29.047Z,100472.53
2023-04-06T15:52:30.819Z,100468.00
2023-04-06T15:57:32.562Z,100476.16
2023-04-06T16:02:34.398Z,100469.97
2023-04-06T16:07:36.279Z,100479.69
2023-04-06T16:12:38.291Z,100480.38
2023-04-06T16:17:41.939Z,100469.81
2023-04-06T16:22:43.641Z,100474.19
2023-04-06T16:27:46.008Z,100469.25
2023-04-06T16:32:51.682Z,100470.97
2023-04-06T16:37:53.377Z,100466.59
2023-04-06T16:42:55.455Z,100475.16
2023-04-06T16:47:57.188Z,100466.47
2023-04-06T16:52:58.985Z,100468.28
2023-04-06T16:58:00.646Z,100466.59
2023-04-06T17:03:02.932Z,100473.63
2023-04-06T17:08:04.815Z,100466.31
2023-04-06T17:13:06.840Z,100468.41
2023-04-06T17:18:08.697Z,100461.97
2023-04-06T17:23:10.365Z,100471.66
2023-04-06T17:28:12.046Z,100476.13
2023-04-06T17:33:13.758Z,100480.06
2023-04-06T17:38:15.542Z,100480.06
2023-04-06T17:43:17.164Z,100486.25
2023-04-06T17:48:23.121Z,100492.56
2023-04-06T17:53:30.532Z,100489.59
2023-04-06T17:58:32.359Z,100497.44
2023-04-06T18:03:34.333Z,100498.69
2023-04-06T18:08:36.114Z,100502.19
2023-04-06T18:13:39.436Z,100500.72
2023-04-06T18:18:42.200Z,100508.59
2023-04-06T18:23:43.972Z,100520.97
2023-04-06T18:28:46.681Z,100515.72
2023-04-06T18:33:48.403Z,100522.56
2023-04-06T18:38:50.194Z,100521.28
2023-04-06T18:43:52.117Z,100528.38
2023-04-06T18:48:53.887Z,100527.53
2023-04-06T18:53:56.355Z,100533.97
2023-04-06T18:58:58.319Z,100534.38
2023-04-06T19:04:00.849Z,100531.28
2023-04-06T19:09:04.883Z,100532.19
2023-04-06T19:14:06.603Z,100534.84
2023-04-06T19:19:08.419Z,100545.16
2023-04-06T19:24:12.116Z,100529.72
2023-04-06T19:29:13.855Z,100533.19
2023-04-06T19:34:17.688Z,100534.06
2023-04-06T19:39:19.549Z,100534.31
2023-04-06T19:44:21.324Z,100541.16
2023-04-06T19:49:23.383Z,100535.66
2023-04-06T19:54:26.542Z,100534.75
2023-04-06T19:59:28.540Z,100529.19
2023-04-06T20:04:30.444Z,100532.97
2023-04-06T20:09:32.229Z,100537.13
2023-04-06T20:14:34.292Z,100534.47
2023-04-06T20:19:36.025Z,100536.16
2023-04-06T20:24:37.615Z,100542.22
2023-04-06T20:29:40.318Z,100533.75
2023-04-06T20:34:41.928Z,100540.66
2023-04-06T20:39:43.602Z,100538.13
2023-04-06T20:44:45.388Z,100542.19
2023-04-06T20:49:47.045Z,100537.72
2023-04-06T20:54:50.607Z,100535.03
2023-04-06T20:59:52.289Z,100538.31
2023-04-06T21:04:53.958Z,100538.88
2023-04-06T21:09:56.459Z,100533.81
2023-04-06T21:14:58.058Z,100535.72
2023-04-06T21:19:59.723Z,100536.69
2023-04-06T21:25:01.408Z,100535.44
2023-04-06T21:30:03.751Z,100533.63
2023-04-06T21:35:05.818Z,100532.75
2023-04-06T21:40:08.165Z,100530.06
2023-04-06T21:45:10.217Z,100532.91
2023-04-06T21:50:11.885Z,100529.03
2023-04-06T21:55:13.510Z,100521.06
2023-04-06T22:00:16.405Z,100520.06
2023-04-06T22:05:18.303Z,100523.41
2023-04-06T22:10:20.088Z,100520.50
2023-04-06T22:15:21.823Z,100515.41
2023-04-06T22:20:23.428Z,100519.25
2023-04-06T22:25:25.041Z,100512.97
2023-04-06T22:30:26.664Z,100513.56
2023-04-06T22:35:28.267Z,100518.97
2023-04-06T22:40:29.959Z,100513.16
2023-04-06T22:45:31.825Z,100505.00
2023-04-06T22:50:33.549Z,100510.00
2023-04-06T22:55:35.359Z,100509.56
2023-04-06T23:00:36.952Z,100496.03
2023-04-06T23:05:38.681Z,100496.88
2023-04-06T23:10:42.064Z,100495.19
2023-04-06T23:15:43.972Z,100496.47
2023-04-06T23:20:45.954Z,100507.09
2023-04-06T23:25:47.624Z,100488.41
2023-04-06T23:30:49.212Z,100491.41
2023-04-06T23:35:52.179Z,100481.41
2023-04-06T23:40:54.210Z,100486.53
2023-04-06T23:45:56.042Z,100483.09
2023-04-06T23:50:57.680Z,100487.22
2023-04-06T23:55:59.305Z,100490.63
